sensor_id;sensor_type;location;lat;lon;timestamp;temperature;humidity
3356;DHT22;1691;52.486;13.374;2022-10-16T00:01:37;15.90;98.70
3356;DHT22;1691;52.486;13.374;2022-10-16T00:04:05;15.90;98.70
3356;DHT22;1691;52.486;13.374;2022-10-16T00:06:32;15.90;98.70
3356;DHT22;1691;52.486;13.374;2022-10-16T00:08:59;16.00;98.70
3356;DHT22;1691;52.486;13.374;2022-10-16T00:11:31;16.00;98.70
3356;DHT22;1691;52.486;13.374;2022-10-16T00:14:01;16.10;98.70
3356;DHT22;1691;52.486;13.374;2022-10-16T00:16:30;16.10;98.70
3356;DHT22;1691;52.486;13.374;2022-10-16T00:18:57;16.10;98.70
3356;DHT22;1691;52.486;13.374;2022-10-16T00:21:27;16.20;98.70
3356;DHT22;1691;52.486;13.374;2022-10-16T00:24:01;16.20;98.70
3356;DHT22;1691;52.486;13.374;2022-10-16T00:26:34;16.30;98.70
3356;DHT22;1691;52.486;13.374;2022-10-16T00:29:02;16.30;98.70
3356;DHT22;1691;52.486;13.374;2022-10-16T00:31:30;16.30;98.70
3356;DHT22;1691;52.486;13.374;2022-10-16T00:33:57;16.30;98.70
3356;DHT22;1691;52.486;13.374;2022-10-16T00:36:25;16.30;98.70
3356;DHT22;1691;52.486;13.374;2022-10-16T00:38:54;16.30;98.70
3356;DHT22;1691;52.486;13.374;2022-10-16T00:41:24;16.40;98.70
3356;DHT22;1691;52.486;13.374;2022-10-16T00:43:59;16.40;98.70
3356;DHT22;1691;52.486;13.374;2022-10-16T00:46:28;16.40;98.70
3356;DHT22;1691;52.486;13.374;2022-10-16T00:49:11;16.40;98.70
3356;DHT22;1691;52.486;13.374;2022-10-16T00:51:50;16.50;98.70
3356;DHT22;1691;52.486;13.374;2022-10-16T00:54:29;16.50;98.70
3356;DHT22;1691;52.486;13.374;2022-10-16T00:57:01;16.40;98.70
3356;DHT22;1691;52.486;13.374;2022-10-16T00:59:37;16.40;98.70
3356;DHT22;1691;52.486;13.374;2022-10-16T01:02:08;16.40;98.70
3356;DHT22;1691;52.486;13.374;2022-10-16T01:04:40;16.40;98.70
3356;DHT22;1691;52.486;13.374;2022-10-16T01:15:28;16.30;98.70
3356;DHT22;1691;52.486;13.374;2022-10-16T01:18:00;16.30;98.70
3356;DHT22;1691;52.486;13.374;2022-10-16T01:20:40;16.30;98.70
3356;DHT22;1691;52.486;13.374;2022-10-16T01:29:08;16.10;98.70
3356;DHT22;1691;52.486;13.374;2022-10-16T01:31:41;16.10;98.70
3356;DHT22;1691;52.486;13.374;2022-10-16T01:34:37;16.10;98.70
3356;DHT22;1691;52.486;13.374;2022-10-16T01:37:12;16.10;98.70
3356;DHT22;1691;52.486;13.374;2022-10-16T01:39:45;16.10;98.70
3356;DHT22;1691;52.486;13.374;2022-10-16T01:42:20;16.10;98.70
3356;DHT22;1691;52.486;13.374;2022-10-16T01:44:51;16.00;98.70
3356;DHT22;1691;52.486;13.374;2022-10-16T01:47:23;16.00;98.70
3356;DHT22;1691;52.486;13.374;2022-10-16T01:49:53;16.00;98.70
3356;DHT22;1691;52.486;13.374;2022-10-16T01:52:23;16.00;98.70
3356;DHT22;1691;52.486;13.374;2022-10-16T01:54:55;15.90;98.70
3356;DHT22;1691;52.486;13.374;2022-10-16T01:57:24;15.90;98.70
3356;DHT22;1691;52.486;13.374;2022-10-16T01:59:54;15.90;98.70
3356;DHT22;1691;52.486;13.374;2022-10-16T02:02:26;15.90;98.70
3356;DHT22;1691;52.486;13.374;2022-10-16T02:04:58;15.90;98.70
3356;DHT22;1691;52.486;13.374;2022-10-16T02:07:30;15.90;98.70
3356;DHT22;1691;52.486;13.374;2022-10-16T02:09:57;15.90;98.70
3356;DHT22;1691;52.486;13.374;2022-10-16T02:12:28;16.00;98.70
3356;DHT22;1691;52.486;13.374;2022-10-16T02:14:56;16.00;98.70
3356;DHT22;1691;52.486;13.374;2022-10-16T02:17:24;16.00;98.70
3356;DHT22;1691;52.486;13.374;2022-10-16T02:19:53;16.00;98.70
3356;DHT22;1691;52.486;13.374;2022-10-16T02:22:32;16.00;98.70
3356;DHT22;1691;52.486;13.374;2022-10-16T02:30:42;16.00;98.70
3356;DHT22;1691;52.486;13.374;2022-10-16T02:33:13;16.00;98.70
3356;DHT22;1691;52.486;13.374;2022-10-16T02:35:41;16.00;98.70
3356;DHT22;1691;52.486;13.374;2022-10-16T02:38:09;16.00;98.70
3356;DHT22;1691;52.486;13.374;2022-10-16T02:40:37;16.00;98.70
3356;DHT22;1691;52.486;13.374;2022-10-16T02:43:05;16.00;98.70
3356;DHT22;1691;52.486;13.374;2022-10-16T02:45:33;16.00;98.70
3356;DHT22;1691;52.486;13.374;2022-10-16T02:48:00;16.10;98.70
3356;DHT22;1691;52.486;13.374;2022-10-16T02:50:27;16.10;98.70
3356;DHT22;1691;52.486;13.374;2022-10-16T02:52:54;16.10;98.70
3356;DHT22;1691;52.486;13.374;2022-10-16T02:55:21;16.10;98.70
3356;DHT22;1691;52.486;13.374;2022-10-16T02:57:48;16.10;98.70
3356;DHT22;1691;52.486;13.374;2022-10-16T03:00:16;16.10;98.70
3356;DHT22;1691;52.486;13.374;2022-10-16T03:02:44;16.10;98.70
3356;DHT22;1691;52.486;13.374;2022-10-16T03:05:11;16.00;98.70
3356;DHT22;1691;52.486;13.374;2022-10-16T03:07:38;16.00;98.70
3356;DHT22;1691;52.486;13.374;2022-10-16T03:10:05;15.90;98.70
3356;DHT22;1691;52.486;13.374;2022-10-16T03:12:33;15.90;98.70
3356;DHT22;1691;52.486;13.374;2022-10-16T03:15:00;15.90;98.70
3356;DHT22;1691;52.486;13.374;2022-10-16T03:17:27;15.90;98.70
3356;DHT22;1691;52.486;13.374;2022-10-16T03:19:55;15.80;98.70
3356;DHT22;1691;52.486;13.374;2022-10-16T03:22:21;15.80;98.70
3356;DHT22;1691;52.486;13.374;2022-10-16T03:24:48;15.70;98.70
3356;DHT22;1691;52.486;13.374;2022-10-16T03:27:15;15.70;98.70
3356;DHT22;1691;52.486;13.374;2022-10-16T03:29:42;15.70;98.70
3356;DHT22;1691;52.486;13.374;2022-10-16T03:32:09;15.70;98.70
3356;DHT22;1691;52.486;13.374;2022-10-16T03:34:36;15.60;98.70
3356;DHT22;1691;52.486;13.374;2022-10-16T03:37:03;15.60;98.70
3356;DHT22;1691;52.486;13.374;2022-10-16T03:39:31;15.50;98.70
3356;DHT22;1691;52.486;13.374;2022-10-16T03:41:58;15.50;98.70
3356;DHT22;1691;52.486;13.374;2022-10-16T03:44:25;15.50;98.70
3356;DHT22;1691;52.486;13.374;2022-10-16T03:46:51;15.40;98.70
3356;DHT22;1691;52.486;13.374;2022-10-16T03:49:18;15.40;98.70
3356;DHT22;1691;52.486;13.374;2022-10-16T03:51:45;15.40;98.70
3356;DHT22;1691;52.486;13.374;2022-10-16T03:54:12;15.30;98.70
3356;DHT22;1691;52.486;13.374;2022-10-16T03:56:39;15.30;98.70
3356;DHT22;1691;52.486;13.374;2022-10-16T03:59:06;15.30;98.70
3356;DHT22;1691;52.486;13.374;2022-10-16T04:01:33;15.30;98.70
3356;DHT22;1691;52.486;13.374;2022-10-16T04:04:00;15.30;98.70
3356;DHT22;1691;52.486;13.374;2022-10-16T04:06:27;15.30;98.70
3356;DHT22;1691;52.486;13.374;2022-10-16T04:08:53;15.30;98.70
3356;DHT22;1691;52.486;13.374;2022-10-16T04:11:20;15.30;98.70
3356;DHT22;1691;52.486;13.374;2022-10-16T04:13:47;15.30;98.70
3356;DHT22;1691;52.486;13.374;2022-10-16T04:16:14;15.30;98.70
3356;DHT22;1691;52.486;13.374;2022-10-16T04:18:41;15.30;98.70
3356;DHT22;1691;52.486;13.374;2022-10-16T04:21:08;15.30;98.70
3356;DHT22;1691;52.486;13.374;2022-10-16T04:23:35;15.30;98.70
3356;DHT22;1691;52.486;13.374;2022-10-16T04:26:02;15.30;98.70
3356;DHT22;1691;52.486;13.374;2022-10-16T04:28:29;15.30;98.70
3356;DHT22;1691;52.486;13.374;2022-10-16T04:30:56;15.30;98.70
3356;DHT22;1691;52.486;13.374;2022-10-16T04:33:23;15.30;98.70
3356;DHT22;1691;52.486;13.374;2022-10-16T04:36:00;15.30;98.70
3356;DHT22;1691;52.486;13.374;2022-10-16T04:38:27;15.30;98.70
3356;DHT22;1691;52.486;13.374;2022-10-16T04:40:55;15.30;98.70
3356;DHT22;1691;52.486;13.374;2022-10-16T04:43:22;15.30;98.70
3356;DHT22;1691;52.486;13.374;2022-10-16T04:45:49;15.20;98.70
3356;DHT22;1691;52.486;13.374;2022-10-16T04:48:19;15.20;98.70
3356;DHT22;1691;52.486;13.374;2022-10-16T04:50:46;15.20;98.70
3356;DHT22;1691;52.486;13.374;2022-10-16T04:53:20;15.20;98.70
3356;DHT22;1691;52.486;13.374;2022-10-16T04:55:47;15.20;98.70
3356;DHT22;1691;52.486;13.374;2022-10-16T04:58:14;15.20;98.70
3356;DHT22;1691;52.486;13.374;2022-10-16T05:00:41;15.10;98.70
3356;DHT22;1691;52.486;13.374;2022-10-16T05:03:08;15.10;98.70
3356;DHT22;1691;52.486;13.374;2022-10-16T05:05:36;15.10;98.70
3356;DHT22;1691;52.486;13.374;2022-10-16T05:08:03;15.10;98.70
3356;DHT22;1691;52.486;13.374;2022-10-16T05:10:30;15.00;98.70
3356;DHT22;1691;52.486;13.374;2022-10-16T05:12:57;15.00;98.70
3356;DHT22;1691;52.486;13.374;2022-10-16T05:15:24;15.00;98.70
3356;DHT22;1691;52.486;13.374;2022-10-16T05:17:55;14.90;98.70
3356;DHT22;1691;52.486;13.374;2022-10-16T05:20:23;14.90;98.70
3356;DHT22;1691;52.486;13.374;2022-10-16T05:22:49;14.90;98.70
3356;DHT22;1691;52.486;13.374;2022-10-16T05:25:17;14.90;98.70
3356;DHT22;1691;52.486;13.374;2022-10-16T05:27:47;14.90;98.70
3356;DHT22;1691;52.486;13.374;2022-10-16T05:30:16;15.00;98.70
3356;DHT22;1691;52.486;13.374;2022-10-16T05:32:50;14.90;98.70
3356;DHT22;1691;52.486;13.374;2022-10-16T05:35:18;14.90;98.70
3356;DHT22;1691;52.486;13.374;2022-10-16T05:37:46;14.90;98.70
3356;DHT22;1691;52.486;13.374;2022-10-16T05:40:14;14.90;98.70
3356;DHT22;1691;52.486;13.374;2022-10-16T05:42:42;14.90;98.70
3356;DHT22;1691;52.486;13.374;2022-10-16T05:45:10;14.80;98.70
3356;DHT22;1691;52.486;13.374;2022-10-16T05:47:38;14.80;98.70
3356;DHT22;1691;52.486;13.374;2022-10-16T05:50:06;14.80;98.70
3356;DHT22;1691;52.486;13.374;2022-10-16T05:52:33;14.80;98.70
3356;DHT22;1691;52.486;13.374;2022-10-16T05:55:00;14.90;98.70
3356;DHT22;1691;52.486;13.374;2022-10-16T05:57:27;14.90;98.70
3356;DHT22;1691;52.486;13.374;2022-10-16T05:59:54;15.00;98.70
3356;DHT22;1691;52.486;13.374;2022-10-16T06:02:21;15.00;98.70
3356;DHT22;1691;52.486;13.374;2022-10-16T06:04:48;15.10;98.70
3356;DHT22;1691;52.486;13.374;2022-10-16T06:07:15;15.10;98.70
3356;DHT22;1691;52.486;13.374;2022-10-16T06:09:42;15.10;98.70
3356;DHT22;1691;52.486;13.374;2022-10-16T06:12:09;15.20;98.70
3356;DHT22;1691;52.486;13.374;2022-10-16T06:14:36;15.20;98.70
3356;DHT22;1691;52.486;13.374;2022-10-16T06:17:03;15.30;98.70
3356;DHT22;1691;52.486;13.374;2022-10-16T06:19:29;15.30;98.70
3356;DHT22;1691;52.486;13.374;2022-10-16T06:21:57;15.30;98.70
3356;DHT22;1691;52.486;13.374;2022-10-16T06:24:25;15.40;98.70
3356;DHT22;1691;52.486;13.374;2022-10-16T06:26:52;15.40;98.70
3356;DHT22;1691;52.486;13.374;2022-10-16T06:29:19;15.50;98.70
3356;DHT22;1691;52.486;13.374;2022-10-16T06:31:46;15.50;98.70
3356;DHT22;1691;52.486;13.374;2022-10-16T06:34:13;15.50;98.70
3356;DHT22;1691;52.486;13.374;2022-10-16T06:36:40;15.50;98.70
3356;DHT22;1691;52.486;13.374;2022-10-16T06:39:07;15.60;98.70
3356;DHT22;1691;52.486;13.374;2022-10-16T06:41:34;15.70;98.70
3356;DHT22;1691;52.486;13.374;2022-10-16T06:44:05;15.70;98.70
3356;DHT22;1691;52.486;13.374;2022-10-16T06:46:34;15.80;98.70
3356;DHT22;1691;52.486;13.374;2022-10-16T06:49:01;15.80;98.70
3356;DHT22;1691;52.486;13.374;2022-10-16T06:51:28;15.80;98.70
3356;DHT22;1691;52.486;13.374;2022-10-16T06:53:55;15.90;98.70
3356;DHT22;1691;52.486;13.374;2022-10-16T06:56:31;15.90;98.70
3356;DHT22;1691;52.486;13.374;2022-10-16T06:59:00;16.00;98.70
3356;DHT22;1691;52.486;13.374;2022-10-16T07:01:27;16.00;98.70
3356;DHT22;1691;52.486;13.374;2022-10-16T07:03:54;16.10;98.70
3356;DHT22;1691;52.486;13.374;2022-10-16T07:06:23;16.20;98.70
3356;DHT22;1691;52.486;13.374;2022-10-16T07:08:52;16.30;98.70
3356;DHT22;1691;52.486;13.374;2022-10-16T07:11:21;16.40;98.70
3356;DHT22;1691;52.486;13.374;2022-10-16T07:13:49;16.60;98.70
3356;DHT22;1691;52.486;13.374;2022-10-16T07:16:24;17.10;98.70
3356;DHT22;1691;52.486;13.374;2022-10-16T07:18:54;17.50;98.70
3356;DHT22;1691;52.486;13.374;2022-10-16T07:21:28;17.80;98.70
3356;DHT22;1691;52.486;13.374;2022-10-16T07:23:59;18.00;98.70
3356;DHT22;1691;52.486;13.374;2022-10-16T07:26:29;18.10;98.50
3356;DHT22;1691;52.486;13.374;2022-10-16T07:28:57;18.10;98.10
3356;DHT22;1691;52.486;13.374;2022-10-16T07:31:25;18.10;97.90
3356;DHT22;1691;52.486;13.374;2022-10-16T07:33:52;18.20;97.60
3356;DHT22;1691;52.486;13.374;2022-10-16T07:36:20;18.20;97.30
3356;DHT22;1691;52.486;13.374;2022-10-16T07:38:47;18.30;97.10
3356;DHT22;1691;52.486;13.374;2022-10-16T07:41:17;18.30;96.80
3356;DHT22;1691;52.486;13.374;2022-10-16T07:43:49;18.40;96.60
3356;DHT22;1691;52.486;13.374;2022-10-16T07:46:19;18.50;96.30
3356;DHT22;1691;52.486;13.374;2022-10-16T07:48:46;18.50;96.10
3356;DHT22;1691;52.486;13.374;2022-10-16T07:51:17;18.50;95.80
3356;DHT22;1691;52.486;13.374;2022-10-16T07:53:45;18.50;95.60
3356;DHT22;1691;52.486;13.374;2022-10-16T07:56:13;18.40;95.50
3356;DHT22;1691;52.486;13.374;2022-10-16T07:58:41;18.40;95.50
3356;DHT22;1691;52.486;13.374;2022-10-16T08:01:10;18.40;95.40
3356;DHT22;1691;52.486;13.374;2022-10-16T08:03:42;18.40;95.40
3356;DHT22;1691;52.486;13.374;2022-10-16T08:06:10;18.40;95.30
3356;DHT22;1691;52.486;13.374;2022-10-16T08:08:37;18.40;95.30
3356;DHT22;1691;52.486;13.374;2022-10-16T08:11:04;18.30;95.30
3356;DHT22;1691;52.486;13.374;2022-10-16T08:13:32;18.40;95.30
3356;DHT22;1691;52.486;13.374;2022-10-16T08:15:59;18.40;95.20
3356;DHT22;1691;52.486;13.374;2022-10-16T08:18:26;18.50;95.10
3356;DHT22;1691;52.486;13.374;2022-10-16T08:20:57;18.50;95.10
3356;DHT22;1691;52.486;13.374;2022-10-16T08:23:25;18.60;95.00
3356;DHT22;1691;52.486;13.374;2022-10-16T08:25:54;18.60;94.90
3356;DHT22;1691;52.486;13.374;2022-10-16T08:28:22;18.70;94.80
3356;DHT22;1691;52.486;13.374;2022-10-16T08:30:49;18.90;94.70
3356;DHT22;1691;52.486;13.374;2022-10-16T08:33:16;19.00;94.30
3356;DHT22;1691;52.486;13.374;2022-10-16T08:35:50;19.10;94.10
3356;DHT22;1691;52.486;13.374;2022-10-16T08:38:20;19.20;93.80
3356;DHT22;1691;52.486;13.374;2022-10-16T08:40:48;19.30;93.70
3356;DHT22;1691;52.486;13.374;2022-10-16T08:49:05;19.70;92.80
3356;DHT22;1691;52.486;13.374;2022-10-16T08:51:38;19.70;92.50
3356;DHT22;1691;52.486;13.374;2022-10-16T08:54:26;19.60;92.40
3356;DHT22;1691;52.486;13.374;2022-10-16T08:56:57;19.60;92.30
3356;DHT22;1691;52.486;13.374;2022-10-16T08:59:31;19.60;92.30
3356;DHT22;1691;52.486;13.374;2022-10-16T09:01:58;19.50;92.20
3356;DHT22;1691;52.486;13.374;2022-10-16T09:13:02;20.00;91.90
3356;DHT22;1691;52.486;13.374;2022-10-16T09:21:43;21.30;89.20
3356;DHT22;1691;52.486;13.374;2022-10-16T09:24:19;21.30;88.40
3356;DHT22;1691;52.486;13.374;2022-10-16T09:26:54;21.30;88.00
3356;DHT22;1691;52.486;13.374;2022-10-16T09:29:21;21.40;88.00
3356;DHT22;1691;52.486;13.374;2022-10-16T09:31:52;22.00;87.10
3356;DHT22;1691;52.486;13.374;2022-10-16T09:34:33;22.90;84.70
3356;DHT22;1691;52.486;13.374;2022-10-16T09:37:04;23.60;81.30
3356;DHT22;1691;52.486;13.374;2022-10-16T09:39:50;23.70;80.00
3356;DHT22;1691;52.486;13.374;2022-10-16T09:42:27;23.60;78.70
3356;DHT22;1691;52.486;13.374;2022-10-16T09:44:58;23.50;79.10
3356;DHT22;1691;52.486;13.374;2022-10-16T09:47:29;23.80;79.10
3356;DHT22;1691;52.486;13.374;2022-10-16T09:50:03;24.50;77.00
3356;DHT22;1691;52.486;13.374;2022-10-16T09:52:33;24.80;75.00
3356;DHT22;1691;52.486;13.374;2022-10-16T09:55:02;24.90;74.10
3356;DHT22;1691;52.486;13.374;2022-10-16T09:57:55;24.70;73.50
3356;DHT22;1691;52.486;13.374;2022-10-16T10:00:23;24.50;72.80
3356;DHT22;1691;52.486;13.374;2022-10-16T10:02:51;24.40;73.30
3356;DHT22;1691;52.486;13.374;2022-10-16T10:05:26;24.30;72.90
3356;DHT22;1691;52.486;13.374;2022-10-16T10:08:00;24.50;72.20
3356;DHT22;1691;52.486;13.374;2022-10-16T10:10:34;24.80;71.50
3356;DHT22;1691;52.486;13.374;2022-10-16T10:13:18;24.80;70.70
3356;DHT22;1691;52.486;13.374;2022-10-16T10:15:46;24.70;70.10
3356;DHT22;1691;52.486;13.374;2022-10-16T10:18:21;24.50;70.90
3356;DHT22;1691;52.486;13.374;2022-10-16T10:21:00;24.30;70.90
3356;DHT22;1691;52.486;13.374;2022-10-16T10:23:33;24.20;70.90
3356;DHT22;1691;52.486;13.374;2022-10-16T10:26:18;24.00;71.50
3356;DHT22;1691;52.486;13.374;2022-10-16T10:34:41;23.40;72.40
3356;DHT22;1691;52.486;13.374;2022-10-16T10:38:01;23.30;72.20
3356;DHT22;1691;52.486;13.374;2022-10-16T10:45:46;23.10;71.80
3356;DHT22;1691;52.486;13.374;2022-10-16T10:48:32;23.10;72.00
3356;DHT22;1691;52.486;13.374;2022-10-16T10:51:10;23.00;71.60
3356;DHT22;1691;52.486;13.374;2022-10-16T10:53:51;22.90;71.50
3356;DHT22;1691;52.486;13.374;2022-10-16T10:56:45;22.70;71.60
3356;DHT22;1691;52.486;13.374;2022-10-16T10:59:27;22.60;71.80
3356;DHT22;1691;52.486;13.374;2022-10-16T11:02:41;22.50;72.20
3356;DHT22;1691;52.486;13.374;2022-10-16T11:05:23;22.40;72.20
3356;DHT22;1691;52.486;13.374;2022-10-16T11:08:12;22.30;72.60
3356;DHT22;1691;52.486;13.374;2022-10-16T11:10:53;22.40;72.60
3356;DHT22;1691;52.486;13.374;2022-10-16T11:16:34;22.70;71.80
3356;DHT22;1691;52.486;13.374;2022-10-16T11:19:31;22.70;71.10
3356;DHT22;1691;52.486;13.374;2022-10-16T11:22:32;22.80;70.90
3356;DHT22;1691;52.486;13.374;2022-10-16T11:27:56;22.80;70.50
3356;DHT22;1691;52.486;13.374;2022-10-16T11:30:30;22.80;70.10
3356;DHT22;1691;52.486;13.374;2022-10-16T11:36:12;22.70;70.00
3356;DHT22;1691;52.486;13.374;2022-10-16T11:39:26;22.60;69.80
3356;DHT22;1691;52.486;13.374;2022-10-16T11:44:57;22.50;69.20
3356;DHT22;1691;52.486;13.374;2022-10-16T11:47:40;22.40;69.00
3356;DHT22;1691;52.486;13.374;2022-10-16T11:51:05;22.30;68.70
3356;DHT22;1691;52.486;13.374;2022-10-16T11:56:19;21.90;69.20
3356;DHT22;1691;52.486;13.374;2022-10-16T11:58:57;21.80;69.40
3356;DHT22;1691;52.486;13.374;2022-10-16T12:01:42;21.60;69.20
3356;DHT22;1691;52.486;13.374;2022-10-16T12:07:03;21.40;69.80
3356;DHT22;1691;52.486;13.374;2022-10-16T12:09:37;21.30;69.60
3356;DHT22;1691;52.486;13.374;2022-10-16T12:12:37;21.20;69.40
3356;DHT22;1691;52.486;13.374;2022-10-16T12:17:52;21.10;69.20
3356;DHT22;1691;52.486;13.374;2022-10-16T12:20:21;21.10;68.80
3356;DHT22;1691;52.486;13.374;2022-10-16T12:22:56;21.10;68.30
3356;DHT22;1691;52.486;13.374;2022-10-16T12:30:32;21.10;67.90
3356;DHT22;1691;52.486;13.374;2022-10-16T12:33:06;21.00;67.90
3356;DHT22;1691;52.486;13.374;2022-10-16T12:35:49;21.00;67.90
3356;DHT22;1691;52.486;13.374;2022-10-16T12:38:24;20.90;68.30
3356;DHT22;1691;52.486;13.374;2022-10-16T12:41:03;20.90;68.50
3356;DHT22;1691;52.486;13.374;2022-10-16T12:48:42;20.80;68.80
3356;DHT22;1691;52.486;13.374;2022-10-16T12:54:03;20.70;68.80
3356;DHT22;1691;52.486;13.374;2022-10-16T13:00:13;20.80;68.30
3356;DHT22;1691;52.486;13.374;2022-10-16T13:03:08;20.80;68.10
3356;DHT22;1691;52.486;13.374;2022-10-16T13:06:33;20.80;68.30
3356;DHT22;1691;52.486;13.374;2022-10-16T13:10:09;20.80;67.90
3356;DHT22;1691;52.486;13.374;2022-10-16T13:12:28;20.80;67.90
3356;DHT22;1691;52.486;13.374;2022-10-16T13:20:36;20.70;67.70
3356;DHT22;1691;52.486;13.374;2022-10-16T13:26:02;20.70;67.70
3356;DHT22;1691;52.486;13.374;2022-10-16T13:28:49;20.70;67.90
3356;DHT22;1691;52.486;13.374;2022-10-16T13:31:22;20.80;67.90
3356;DHT22;1691;52.486;13.374;2022-10-16T13:33:59;20.80;67.70
3356;DHT22;1691;52.486;13.374;2022-10-16T13:36:42;20.80;67.70
3356;DHT22;1691;52.486;13.374;2022-10-16T13:39:20;20.80;67.70
3356;DHT22;1691;52.486;13.374;2022-10-16T13:42:06;20.80;67.90
3356;DHT22;1691;52.486;13.374;2022-10-16T13:44:47;20.90;68.50
3356;DHT22;1691;52.486;13.374;2022-10-16T13:47:21;20.90;68.70
3356;DHT22;1691;52.486;13.374;2022-10-16T13:50:04;21.00;68.50
3356;DHT22;1691;52.486;13.374;2022-10-16T13:52:33;21.10;68.10
3356;DHT22;1691;52.486;13.374;2022-10-16T13:55:00;21.10;67.90
3356;DHT22;1691;52.486;13.374;2022-10-16T13:57:28;21.00;67.90
3356;DHT22;1691;52.486;13.374;2022-10-16T13:59:55;20.90;67.90
3356;DHT22;1691;52.486;13.374;2022-10-16T14:02:27;20.80;67.90
3356;DHT22;1691;52.486;13.374;2022-10-16T14:04:58;20.60;68.10
3356;DHT22;1691;52.486;13.374;2022-10-16T14:07:31;20.60;68.30
3356;DHT22;1691;52.486;13.374;2022-10-16T14:10:07;20.50;68.50
3356;DHT22;1691;52.486;13.374;2022-10-16T14:13:04;20.40;68.50
3356;DHT22;1691;52.486;13.374;2022-10-16T14:15:34;20.40;68.80
3356;DHT22;1691;52.486;13.374;2022-10-16T14:18:02;20.40;68.80
3356;DHT22;1691;52.486;13.374;2022-10-16T14:20:32;20.30;69.20
3356;DHT22;1691;52.486;13.374;2022-10-16T14:23:17;20.30;69.20
3356;DHT22;1691;52.486;13.374;2022-10-16T14:25:47;20.30;69.20
3356;DHT22;1691;52.486;13.374;2022-10-16T14:28:20;20.30;69.60
3356;DHT22;1691;52.486;13.374;2022-10-16T14:30:56;20.30;69.60
3356;DHT22;1691;52.486;13.374;2022-10-16T14:38:40;20.30;69.40
3356;DHT22;1691;52.486;13.374;2022-10-16T14:41:09;20.30;69.40
3356;DHT22;1691;52.486;13.374;2022-10-16T14:43:42;20.20;69.60
3356;DHT22;1691;52.486;13.374;2022-10-16T14:46:19;20.20;69.40
3356;DHT22;1691;52.486;13.374;2022-10-16T14:49:12;20.20;69.20
3356;DHT22;1691;52.486;13.374;2022-10-16T14:51:44;20.10;68.80
3356;DHT22;1691;52.486;13.374;2022-10-16T14:54:14;20.10;68.80
3356;DHT22;1691;52.486;13.374;2022-10-16T14:56:56;20.10;69.00
3356;DHT22;1691;52.486;13.374;2022-10-16T14:59:37;20.00;69.00
3356;DHT22;1691;52.486;13.374;2022-10-16T15:04:49;19.90;69.40
3356;DHT22;1691;52.486;13.374;2022-10-16T15:07:16;19.90;69.60
3356;DHT22;1691;52.486;13.374;2022-10-16T15:09:43;19.80;69.80
3356;DHT22;1691;52.486;13.374;2022-10-16T15:12:15;19.80;69.80
3356;DHT22;1691;52.486;13.374;2022-10-16T15:14:43;19.70;70.00
3356;DHT22;1691;52.486;13.374;2022-10-16T15:17:13;19.70;70.30
3356;DHT22;1691;52.486;13.374;2022-10-16T15:19:44;19.60;70.30
3356;DHT22;1691;52.486;13.374;2022-10-16T15:22:11;19.60;70.30
3356;DHT22;1691;52.486;13.374;2022-10-16T15:24:38;19.50;70.50
3356;DHT22;1691;52.486;13.374;2022-10-16T15:27:06;19.40;70.70
3356;DHT22;1691;52.486;13.374;2022-10-16T15:29:32;19.40;70.70
3356;DHT22;1691;52.486;13.374;2022-10-16T15:31:59;19.30;70.70
3356;DHT22;1691;52.486;13.374;2022-10-16T15:34:26;19.20;71.10
3356;DHT22;1691;52.486;13.374;2022-10-16T15:36:53;19.20;71.10
3356;DHT22;1691;52.486;13.374;2022-10-16T15:39:21;19.20;71.30
3356;DHT22;1691;52.486;13.374;2022-10-16T15:41:48;19.20;71.60
3356;DHT22;1691;52.486;13.374;2022-10-16T15:44:18;19.20;71.60
3356;DHT22;1691;52.486;13.374;2022-10-16T15:46:45;19.10;71.60
3356;DHT22;1691;52.486;13.374;2022-10-16T15:49:13;19.10;71.50
3356;DHT22;1691;52.486;13.374;2022-10-16T15:51:41;19.00;71.50
3356;DHT22;1691;52.486;13.374;2022-10-16T15:54:08;18.90;71.60
3356;DHT22;1691;52.486;13.374;2022-10-16T15:56:35;18.80;71.80
3356;DHT22;1691;52.486;13.374;2022-10-16T15:59:04;18.70;71.80
3356;DHT22;1691;52.486;13.374;2022-10-16T16:01:35;18.60;72.00
3356;DHT22;1691;52.486;13.374;2022-10-16T16:04:02;18.50;72.20
3356;DHT22;1691;52.486;13.374;2022-10-16T16:06:45;18.40;72.40
3356;DHT22;1691;52.486;13.374;2022-10-16T16:09:13;18.30;72.80
3356;DHT22;1691;52.486;13.374;2022-10-16T16:11:41;18.20;72.90
3356;DHT22;1691;52.486;13.374;2022-10-16T16:14:13;18.10;73.30
3356;DHT22;1691;52.486;13.374;2022-10-16T16:16:40;18.00;73.70
3356;DHT22;1691;52.486;13.374;2022-10-16T16:19:09;17.90;73.90
3356;DHT22;1691;52.486;13.374;2022-10-16T16:21:38;17.80;74.20
3356;DHT22;1691;52.486;13.374;2022-10-16T16:24:05;17.70;74.40
3356;DHT22;1691;52.486;13.374;2022-10-16T16:26:35;17.70;74.60
3356;DHT22;1691;52.486;13.374;2022-10-16T16:29:06;17.60;74.80
3356;DHT22;1691;52.486;13.374;2022-10-16T16:31:33;17.50;75.40
3356;DHT22;1691;52.486;13.374;2022-10-16T16:34:01;17.40;75.40
3356;DHT22;1691;52.486;13.374;2022-10-16T16:36:29;17.40;75.70
3356;DHT22;1691;52.486;13.374;2022-10-16T16:38:57;17.30;75.90
3356;DHT22;1691;52.486;13.374;2022-10-16T16:41:26;17.20;76.30
3356;DHT22;1691;52.486;13.374;2022-10-16T16:43:54;17.20;76.50
3356;DHT22;1691;52.486;13.374;2022-10-16T16:46:22;17.10;76.70
3356;DHT22;1691;52.486;13.374;2022-10-16T16:48:49;17.10;76.90
3356;DHT22;1691;52.486;13.374;2022-10-16T16:51:21;17.00;77.00
3356;DHT22;1691;52.486;13.374;2022-10-16T16:53:51;17.00;77.20
3356;DHT22;1691;52.486;13.374;2022-10-16T16:56:20;16.90;77.60
3356;DHT22;1691;52.486;13.374;2022-10-16T16:58:49;16.80;78.00
3356;DHT22;1691;52.486;13.374;2022-10-16T17:01:18;16.80;78.20
3356;DHT22;1691;52.486;13.374;2022-10-16T17:03:48;16.70;78.50
3356;DHT22;1691;52.486;13.374;2022-10-16T17:06:24;16.70;78.70
3356;DHT22;1691;52.486;13.374;2022-10-16T17:08:52;16.60;79.10
3356;DHT22;1691;52.486;13.374;2022-10-16T17:11:21;16.60;79.30
3356;DHT22;1691;52.486;13.374;2022-10-16T17:13:51;16.50;79.50
3356;DHT22;1691;52.486;13.374;2022-10-16T17:16:34;16.50;79.70
3356;DHT22;1691;52.486;13.374;2022-10-16T17:19:05;16.40;80.00
3356;DHT22;1691;52.486;13.374;2022-10-16T17:21:34;16.40;80.20
3356;DHT22;1691;52.486;13.374;2022-10-16T17:24:01;16.30;80.40
3356;DHT22;1691;52.486;13.374;2022-10-16T17:26:29;16.30;80.60
3356;DHT22;1691;52.486;13.374;2022-10-16T17:28:59;16.30;80.80
3356;DHT22;1691;52.486;13.374;2022-10-16T17:31:35;16.20;81.00
3356;DHT22;1691;52.486;13.374;2022-10-16T17:34:04;16.20;81.30
3356;DHT22;1691;52.486;13.374;2022-10-16T17:36:34;16.10;81.30
3356;DHT22;1691;52.486;13.374;2022-10-16T17:39:07;16.10;81.50
3356;DHT22;1691;52.486;13.374;2022-10-16T17:41:35;16.10;81.70
3356;DHT22;1691;52.486;13.374;2022-10-16T17:44:03;16.00;81.70
3356;DHT22;1691;52.486;13.374;2022-10-16T17:46:31;16.00;82.30
3356;DHT22;1691;52.486;13.374;2022-10-16T17:49:05;15.90;82.60
3356;DHT22;1691;52.486;13.374;2022-10-16T17:51:32;15.90;82.80
3356;DHT22;1691;52.486;13.374;2022-10-16T17:54:00;15.80;83.00
3356;DHT22;1691;52.486;13.374;2022-10-16T17:56:28;15.80;83.00
3356;DHT22;1691;52.486;13.374;2022-10-16T17:58:58;15.80;83.20